createdAt,value
2018-04-11T00:00:22.964Z,11.95
2018-04-11T00:02:51.265Z,11.93
2018-04-11T00:05:19.534Z,11.91
2018-04-11T00:07:47.862Z,11.90
2018-04-11T00:10:16.122Z,11.91
2018-04-11T00:12:44.401Z,11.86
2018-04-11T00:15:12.677Z,11.79
2018-04-11T00:17:40.964Z,11.86
2018-04-11T00:20:09.490Z,11.97
2018-04-11T00:22:37.750Z,11.85
2018-04-11T00:25:06.057Z,11.82
2018-04-11T00:27:34.318Z,11.87
2018-04-11T00:30:02.613Z,11.82
2018-04-11T00:32:30.881Z,11.82
2018-04-11T00:34:59.185Z,11.81
2018-04-11T00:37:27.443Z,11.77
2018-04-11T00:39:55.753Z,11.76
2018-04-11T00:42:24.016Z,11.74
2018-04-11T00:44:52.294Z,11.68
2018-04-11T00:47:20.587Z,11.75
2018-04-11T00:49:49.145Z,11.79
2018-04-11T00:52:17.406Z,11.88
2018-04-11T00:54:45.725Z,11.91
2018-04-11T00:57:13.984Z,11.96
2018-04-11T00:59:42.295Z,11.96
2018-04-11T01:02:10.567Z,11.91
2018-04-11T01:04:38.908Z,11.80
2018-04-11T01:07:07.154Z,11.78
2018-04-11T01:09:35.458Z,11.76
2018-04-11T01:12:03.722Z,11.62
2018-04-11T01:14:31.997Z,11.57
2018-04-11T01:17:00.290Z,11.54
2018-04-11T01:19:28.581Z,11.56
2018-04-11T01:21:56.873Z,11.54
2018-04-11T01:24:25.130Z,11.54
2018-04-11T01:26:53.423Z,11.59
2018-04-11T01:29:21.707Z,11.54
2018-04-11T01:31:50.015Z,11.48
2018-04-11T01:34:18.298Z,11.52
2018-04-11T01:36:46.587Z,11.58
2018-04-11T01:39:14.843Z,11.65
2018-04-11T01:41:43.127Z,11.62
2018-04-11T01:44:11.390Z,11.60
2018-04-11T01:46:39.671Z,11.48
2018-04-11T01:49:07.945Z,11.52
2018-04-11T01:51:36.227Z,11.42
2018-04-11T01:54:05.611Z,11.35
2018-04-11T01:56:33.962Z,11.35
2018-04-11T01:59:02.218Z,11.33
2018-04-11T02:01:30.532Z,11.37
2018-04-11T02:03:58.830Z,11.39
2018-04-11T02:06:27.110Z,11.42
2018-04-11T02:08:55.408Z,11.33
2018-04-11T02:11:23.657Z,11.25
2018-04-11T02:13:51.936Z,11.38
2018-04-11T02:16:20.204Z,11.39
2018-04-11T02:18:48.499Z,11.38
2018-04-11T02:21:16.829Z,11.26
2018-04-11T02:23:45.137Z,11.33
2018-04-11T02:26:13.382Z,11.36
2018-04-11T02:28:41.694Z,11.19
2018-04-11T02:31:09.977Z,10.84
2018-04-11T02:33:38.266Z,10.58
2018-04-11T02:36:06.595Z,10.46
2018-04-11T02:38:34.909Z,10.36
2018-04-11T02:41:03.151Z,10.29
2018-04-11T02:43:31.445Z,10.21
2018-04-11T02:45:59.712Z,10.15
2018-04-11T02:48:28.043Z,10.10
2018-04-11T02:50:56.309Z,10.13
2018-04-11T02:53:24.598Z,10.12
2018-04-11T02:55:52.852Z,10.18
2018-04-11T02:58:21.172Z,10.27
2018-04-11T03:00:49.482Z,10.44
2018-04-11T03:03:17.747Z,10.61
2018-04-11T03:05:46.056Z,10.41
2018-04-11T03:08:14.349Z,10.05
2018-04-11T03:10:42.643Z,9.80
2018-04-11T03:13:10.927Z,9.69
2018-04-11T03:15:39.205Z,9.54
2018-04-11T03:18:07.474Z,9.47
2018-04-11T03:20:36.488Z,9.43
2018-04-11T03:23:04.808Z,9.31
2018-04-11T03:25:33.093Z,9.37
2018-04-11T03:28:01.357Z,9.33
2018-04-11T03:30:29.687Z,9.30
2018-04-11T03:32:58.510Z,9.23
2018-04-11T03:35:26.845Z,9.18
2018-04-11T03:37:55.118Z,9.21
2018-04-11T03:40:23.600Z,9.23
2018-04-11T03:42:52.213Z,9.24
2018-04-11T03:45:20.538Z,9.24
2018-04-11T03:47:48.818Z,9.18
2018-04-11T03:50:17.096Z,9.15
2018-04-11T03:52:45.388Z,9.21
2018-04-11T03:55:13.670Z,9.19
2018-04-11T03:57:41.975Z,9.18
2018-04-11T04:00:10.245Z,9.26
2018-04-11T04:02:38.551Z,9.42
2018-04-11T04:05:06.825Z,9.51
2018-04-11T04:07:35.179Z,9.55
2018-04-11T04:10:03.414Z,9.57
2018-04-11T04:12:31.718Z,9.74
2018-04-11T04:18:12.903Z,9.93
2018-04-11T04:20:41.182Z,9.95
2018-04-11T04:23:09.474Z,10.00
2018-04-11T04:25:37.738Z,9.97
2018-04-11T04:28:06.053Z,9.90
2018-04-11T04:30:34.330Z,9.82
2018-04-11T04:33:02.645Z,9.78
2018-04-11T04:35:30.936Z,9.81
2018-04-11T04:37:59.221Z,9.83
2018-04-11T04:40:27.509Z,9.80
2018-04-11T04:42:55.801Z,9.82
2018-04-11T04:45:24.214Z,9.73
2018-04-11T04:47:52.812Z,9.67
2018-04-11T04:50:21.092Z,9.59
2018-04-11T04:52:49.371Z,9.39
2018-04-11T04:55:17.658Z,9.52
2018-04-11T04:57:45.930Z,9.58
2018-04-11T05:00:14.230Z,9.56
2018-04-11T05:02:42.588Z,9.69
2018-04-11T05:05:11.627Z,9.66
2018-04-11T05:07:39.915Z,9.64
2018-04-11T05:10:08.248Z,9.68
2018-04-11T05:12:36.510Z,9.60
2018-04-11T05:15:04.863Z,9.56
2018-04-11T05:17:33.142Z,9.52
2018-04-11T05:20:01.476Z,9.42
2018-04-11T05:22:29.738Z,9.47
2018-04-11T05:24:58.058Z,9.49
2018-04-11T05:27:26.333Z,9.49
2018-04-11T05:29:54.688Z,9.49
2018-04-11T05:32:26.259Z,9.42
2018-04-11T05:34:54.587Z,9.29
2018-04-11T05:37:22.863Z,9.21
2018-04-11T05:39:51.145Z,9.15
2018-04-11T05:42:19.435Z,9.21
2018-04-11T05:44:47.714Z,9.37
2018-04-11T05:47:15.985Z,9.39
2018-04-11T05:49:44.253Z,9.47
2018-04-11T05:52:12.539Z,9.48
2018-04-11T05:54:40.791Z,9.46
2018-04-11T05:57:09.155Z,9.35
2018-04-11T05:59:37.420Z,9.63
2018-04-11T06:02:05.715Z,9.65
2018-04-11T06:04:33.969Z,9.59
2018-04-11T06:07:02.554Z,9.58
2018-04-11T06:09:30.783Z,9.51
2018-04-11T06:11:59.219Z,9.46
2018-04-11T06:14:27.530Z,9.51
2018-04-11T06:16:55.856Z,9.53
2018-04-11T06:19:24.111Z,9.62
2018-04-11T06:21:52.495Z,9.64
2018-04-11T06:24:20.769Z,9.74
2018-04-11T06:26:49.166Z,9.80
2018-04-11T06:29:17.414Z,9.84
2018-04-11T06:31:45.742Z,9.91
2018-04-11T06:34:14.016Z,10.07
2018-04-11T06:36:42.327Z,9.96
2018-04-11T06:39:10.612Z,10.02
2018-04-11T06:41:38.897Z,10.10
2018-04-11T06:44:07.174Z,10.20
2018-04-11T06:46:35.433Z,10.25
2018-04-11T06:49:03.741Z,10.32
2018-04-11T06:51:31.995Z,10.42
2018-04-11T06:54:00.294Z,10.32
2018-04-11T06:56:28.632Z,10.15
2018-04-11T06:58:56.995Z,9.92
2018-04-11T07:01:26.006Z,9.83
2018-04-11T07:03:54.341Z,10.06
2018-04-11T07:06:22.595Z,10.32
2018-04-11T07:08:50.938Z,10.26
2018-04-11T07:11:19.243Z,10.12
2018-04-11T07:13:47.610Z,10.15
2018-04-11T07:16:15.906Z,10.02
2018-04-11T07:18:44.171Z,10.24
2018-04-11T07:21:12.445Z,10.56
2018-04-11T07:23:40.786Z,10.84
2018-04-11T07:26:09.063Z,11.21
2018-04-11T07:28:37.352Z,11.42
2018-04-11T07:31:05.654Z,11.37
2018-04-11T07:33:33.927Z,11.24
2018-04-11T07:36:02.270Z,11.59
2018-04-11T07:38:30.546Z,11.48
2018-04-11T07:40:58.844Z,11.28
2018-04-11T07:43:27.170Z,11.46
2018-04-11T07:45:55.808Z,11.42
2018-04-11T07:48:24.099Z,11.65
2018-04-11T07:50:52.382Z,12.04
2018-04-11T07:53:20.713Z,12.39
2018-04-11T07:55:49.021Z,12.69
2018-04-11T07:58:17.693Z,12.85
2018-04-11T08:00:45.981Z,13.02
2018-04-11T08:03:14.332Z,13.14
2018-04-11T08:05:42.561Z,12.91
2018-04-11T08:08:10.898Z,12.81
2018-04-11T08:10:39.189Z,13.09
2018-04-11T08:13:07.522Z,13.25
2018-04-11T08:15:35.831Z,13.41
2018-04-11T08:18:04.913Z,13.50
2018-04-11T08:20:33.248Z,13.37
2018-04-11T08:23:01.562Z,13.36
2018-04-11T08:25:29.856Z,13.66
2018-04-11T08:27:59.447Z,13.73
2018-04-11T08:30:27.742Z,13.62
2018-04-11T08:32:56.109Z,13.87
2018-04-11T08:35:24.421Z,13.92
2018-04-11T08:37:52.706Z,13.90
2018-04-11T08:40:21.034Z,13.88
2018-04-11T08:42:49.351Z,14.06
2018-04-11T08:45:17.687Z,14.20
2018-04-11T08:47:45.990Z,14.25
2018-04-11T08:50:14.349Z,14.25
2018-04-11T08:52:42.655Z,14.22
2018-04-11T08:55:10.934Z,14.39
2018-04-11T08:57:39.266Z,14.61
2018-04-11T09:00:07.627Z,14.83
2018-04-11T09:02:35.887Z,15.15
2018-04-11T09:05:04.218Z,15.00
2018-04-11T09:07:32.613Z,14.96
2018-04-11T09:10:00.908Z,15.05
2018-04-11T09:12:29.226Z,14.99
2018-04-11T09:14:57.522Z,14.98
2018-04-11T09:17:25.955Z,15.05
2018-04-11T09:19:54.231Z,15.20
2018-04-11T09:22:22.514Z,15.47
2018-04-11T09:24:50.837Z,15.70
2018-04-11T09:27:19.662Z,15.81
2018-04-11T09:29:47.951Z,15.97
2018-04-11T09:32:16.261Z,16.04
2018-04-11T09:34:45.374Z,16.22
2018-04-11T09:37:13.672Z,16.35
2018-04-11T09:39:41.969Z,16.41
2018-04-11T09:42:10.240Z,16.48
2018-04-11T09:44:38.578Z,16.63
2018-04-11T09:47:06.865Z,16.78
2018-04-11T09:49:35.203Z,16.73
2018-04-11T09:52:03.465Z,16.75
2018-04-11T09:54:31.756Z,16.84
2018-04-11T09:57:00.046Z,16.95
2018-04-11T09:59:28.343Z,16.96
2018-04-11T10:01:56.642Z,16.75
2018-04-11T10:04:25.275Z,16.67
2018-04-11T10:06:53.603Z,16.62
2018-04-11T10:09:21.881Z,17.04
2018-04-11T10:11:50.195Z,16.88
2018-04-11T10:14:18.486Z,16.72
2018-04-11T10:16:46.810Z,16.85
2018-04-11T10:19:15.088Z,16.95
2018-04-11T10:21:43.420Z,17.09
2018-04-11T10:24:11.769Z,17.19
2018-04-11T10:26:40.046Z,17.56
2018-04-11T10:29:08.343Z,17.76
2018-04-11T10:31:37.239Z,17.35
2018-04-11T10:34:05.595Z,17.55
2018-04-11T10:36:33.881Z,17.80
2018-04-11T10:39:02.245Z,18.10
2018-04-11T10:41:30.535Z,18.22
2018-04-11T10:43:58.832Z,18.37
2018-04-11T10:46:27.768Z,18.27
2018-04-11T10:48:56.101Z,18.24
2018-04-11T10:51:24.355Z,18.45
2018-04-11T10:53:52.708Z,18.24
2018-04-11T10:56:21.017Z,18.08
2018-04-11T10:58:49.341Z,18.33
2018-04-11T11:01:17.574Z,18.57
2018-04-11T11:03:45.996Z,18.75
2018-04-11T11:06:14.242Z,18.49
2018-04-11T11:08:42.594Z,18.79
2018-04-11T11:11:10.877Z,18.84
2018-04-11T11:13:39.160Z,19.06
2018-04-11T11:16:07.532Z,19.18
2018-04-11T11:18:35.819Z,18.64
2018-04-11T11:21:04.142Z,18.96
2018-04-11T11:23:32.465Z,19.29
2018-04-11T11:26:00.864Z,19.03
2018-04-11T11:28:29.228Z,19.32
2018-04-11T11:30:57.478Z,19.76
2018-04-11T11:33:25.828Z,20.12
2018-04-11T11:35:54.062Z,20.37
2018-04-11T11:38:23.833Z,20.59
2018-04-11T11:40:52.145Z,20.69
2018-04-11T11:43:20.449Z,20.28
2018-04-11T11:45:48.714Z,20.12
2018-04-11T11:48:17.087Z,19.80
2018-04-11T11:50:45.362Z,19.50
2018-04-11T11:53:13.661Z,19.50
2018-04-11T11:55:41.935Z,19.54
2018-04-11T11:58:10.301Z,19.97
2018-04-11T12:00:38.569Z,20.13
2018-04-11T12:03:07.622Z,20.52
2018-04-11T12:05:35.910Z,20.97
2018-04-11T12:08:05.329Z,21.07
2018-04-11T12:10:33.611Z,20.93
2018-04-11T12:13:01.894Z,21.04
2018-04-11T12:15:30.179Z,21.32
2018-04-11T12:17:58.686Z,21.40
2018-04-11T12:20:26.984Z,21.62
2018-04-11T12:22:55.297Z,21.94
2018-04-11T12:25:24.421Z,21.80
2018-04-11T12:27:52.766Z,22.09
2018-04-11T12:30:22.074Z,22.07
2018-04-11T12:32:50.367Z,21.51
2018-04-11T12:35:18.692Z,21.15
2018-04-11T12:37:47.075Z,21.25
2018-04-11T12:40:15.474Z,21.63
2018-04-11T12:42:43.761Z,22.08
2018-04-11T12:45:12.145Z,22.33
2018-04-11T12:47:40.422Z,22.64
2018-04-11T12:50:08.927Z,22.73
2018-04-11T12:52:37.233Z,22.31
2018-04-11T12:55:05.626Z,21.59
2018-04-11T12:57:35.136Z,21.41
2018-04-11T13:00:03.621Z,20.65
2018-04-11T13:02:33.238Z,19.95
2018-04-11T13:05:03.185Z,19.99
2018-04-11T13:07:33.499Z,20.68
2018-04-11T13:10:01.802Z,20.92
2018-04-11T13:12:30.825Z,20.90
2018-04-11T13:14:59.522Z,21.06
2018-04-11T13:17:29.206Z,21.03
2018-04-11T13:19:57.465Z,21.11
2018-04-11T13:22:25.755Z,21.43
2018-04-11T13:24:54.063Z,21.90
2018-04-11T13:27:22.377Z,22.50
2018-04-11T13:29:50.659Z,22.71
2018-04-11T13:32:18.968Z,22.72
2018-04-11T13:34:47.241Z,23.19
2018-04-11T13:37:15.586Z,23.23
2018-04-11T13:39:43.867Z,23.64
2018-04-11T13:42:12.190Z,23.41
2018-04-11T13:44:40.438Z,22.80
2018-04-11T13:47:08.718Z,22.72
2018-04-11T13:49:37.060Z,23.17
2018-04-11T13:52:05.532Z,23.76
2018-04-11T13:54:33.828Z,24.07
2018-04-11T13:57:02.103Z,23.54
2018-04-11T13:59:30.385Z,22.64
2018-04-11T14:01:58.721Z,23.20
2018-04-11T14:04:27.037Z,22.90
2018-04-11T14:06:55.310Z,23.15
2018-04-11T14:09:23.647Z,23.36
2018-04-11T14:11:51.904Z,23.03
2018-04-11T14:14:20.223Z,23.93
2018-04-11T14:16:48.557Z,24.28
2018-04-11T14:19:17.530Z,23.59
2018-04-11T14:21:45.843Z,23.51
2018-04-11T14:24:14.128Z,24.16
2018-04-11T14:26:42.417Z,24.28
2018-04-11T14:29:10.742Z,24.53
2018-04-11T14:31:39.022Z,24.95
2018-04-11T14:34:07.400Z,23.98
2018-04-11T14:36:36.451Z,23.99
2018-04-11T14:39:05.902Z,23.54
2018-04-11T14:41:35.936Z,23.89
2018-04-11T14:44:05.015Z,24.71
2018-04-11T14:46:33.341Z,24.38
2018-04-11T14:49:01.618Z,24.71
2018-04-11T14:51:29.965Z,24.99
2018-04-11T14:53:58.206Z,25.33
2018-04-11T14:56:26.549Z,25.77
2018-04-11T14:58:54.814Z,25.73
2018-04-11T15:01:23.177Z,25.76
2018-04-11T15:03:51.431Z,25.97
2018-04-11T15:06:19.739Z,25.03
2018-04-11T15:08:48.025Z,24.21
2018-04-11T15:11:16.305Z,23.38
2018-04-11T15:13:44.566Z,23.79
2018-04-11T15:16:12.865Z,23.82
2018-04-11T15:18:41.135Z,24.29
2018-04-11T15:21:09.510Z,24.60
2018-04-11T15:23:37.891Z,24.87
2018-04-11T15:26:06.164Z,24.42
2018-04-11T15:28:34.554Z,24.60
2018-04-11T15:31:05.080Z,24.60
2018-04-11T15:33:33.409Z,25.11
2018-04-11T15:36:01.804Z,26.13
2018-04-11T15:38:30.124Z,26.44
2018-04-11T15:40:58.466Z,27.08
2018-04-11T15:43:26.903Z,27.29
2018-04-11T15:45:55.360Z,27.25
2018-04-11T15:48:23.668Z,26.07
2018-04-11T15:50:51.951Z,25.70
2018-04-11T15:53:20.259Z,26.34
2018-04-11T15:55:48.530Z,26.49
2018-04-11T15:58:16.949Z,27.20
2018-04-11T16:00:45.265Z,27.17
2018-04-11T16:03:13.554Z,26.15
2018-04-11T16:05:41.838Z,25.18
2018-04-11T16:08:10.164Z,25.98
2018-04-11T16:10:38.403Z,26.56
2018-04-11T16:13:06.828Z,26.12
2018-04-11T16:15:35.049Z,25.51
2018-04-11T16:18:03.400Z,25.45
2018-04-11T16:20:31.662Z,25.42
2018-04-11T16:22:59.932Z,25.90
2018-04-11T16:25:28.274Z,26.19
2018-04-11T16:27:56.571Z,26.33
2018-04-11T16:30:24.975Z,26.49
2018-04-11T16:32:53.267Z,26.74
2018-04-11T16:35:21.551Z,26.87
2018-04-11T16:37:49.831Z,25.94
2018-04-11T16:40:18.106Z,25.20
2018-04-11T16:42:46.416Z,26.27
2018-04-11T16:45:14.711Z,27.18
2018-04-11T16:47:42.983Z,27.30
2018-04-11T16:50:11.288Z,26.28
2018-04-11T16:52:39.587Z,26.20
2018-04-11T16:55:07.888Z,26.41
2018-04-11T16:57:36.205Z,26.02
2018-04-11T17:00:04.902Z,26.32
2018-04-11T17:02:33.151Z,25.82
2018-04-11T17:05:01.594Z,25.51
2018-04-11T17:07:30.898Z,25.45
2018-04-11T17:09:59.189Z,25.51
2018-04-11T17:12:27.473Z,25.21
2018-04-11T17:14:55.773Z,25.24
2018-04-11T17:17:24.092Z,25.14
2018-04-11T17:19:52.356Z,24.69
2018-04-11T17:22:32.343Z,24.38
2018-04-11T17:25:12.303Z,24.14
2018-04-11T17:27:52.345Z,23.85
2018-04-11T17:30:32.483Z,23.30
2018-04-11T17:33:00.777Z,22.90
2018-04-11T17:35:29.782Z,22.79
2018-04-11T17:37:58.080Z,22.77
2018-04-11T17:40:26.348Z,22.67
2018-04-11T17:42:54.990Z,22.66
2018-04-11T17:45:23.310Z,22.66
2018-04-11T17:47:51.569Z,22.54
2018-04-11T17:50:19.844Z,22.10
2018-04-11T17:52:48.167Z,21.70
2018-04-11T17:55:16.453Z,21.24
2018-04-11T17:57:44.781Z,21.35
2018-04-11T18:00:13.057Z,21.11
2018-04-11T18:02:41.387Z,21.09
2018-04-11T18:05:09.688Z,21.05
2018-04-11T18:07:38.000Z,21.04
2018-04-11T18:10:06.343Z,20.82
2018-04-11T18:12:34.641Z,20.85
2018-04-11T18:15:02.908Z,20.75
2018-04-11T18:17:31.179Z,20.80
2018-04-11T18:19:59.487Z,20.57
2018-04-11T18:22:27.763Z,20.25
2018-04-11T18:24:56.103Z,20.29
2018-04-11T18:27:24.357Z,20.20
2018-04-11T18:29:52.668Z,20.38
2018-04-11T18:32:20.953Z,20.41
2018-04-11T18:34:49.276Z,20.36
2018-04-11T18:37:17.579Z,20.23
2018-04-11T18:39:46.703Z,20.28
2018-04-11T18:42:14.987Z,20.25
2018-04-11T18:44:43.387Z,20.09
2018-04-11T18:47:11.942Z,19.65
2018-04-11T18:49:40.327Z,19.68
2018-04-11T18:52:08.606Z,19.82
2018-04-11T18:54:36.899Z,19.78
2018-04-11T18:57:05.413Z,19.81
2018-04-11T18:59:33.722Z,19.82
2018-04-11T19:02:02.035Z,19.76
2018-04-11T19:04:30.298Z,19.67
2018-04-11T19:06:58.627Z,19.63
2018-04-11T19:09:26.932Z,19.58
2018-04-11T19:11:55.270Z,19.62
2018-04-11T19:14:23.587Z,19.59
2018-04-11T19:16:51.968Z,19.47
2018-04-11T19:19:20.253Z,19.27
2018-04-11T19:21:48.534Z,19.25
2018-04-11T19:24:16.838Z,19.26
2018-04-11T19:26:45.142Z,19.30
2018-04-11T19:29:13.415Z,19.19
2018-04-11T19:31:41.739Z,19.13
2018-04-11T19:34:10.012Z,19.02
2018-04-11T19:36:38.296Z,19.16
2018-04-11T19:39:06.585Z,19.86
2018-04-11T19:41:34.900Z,20.41
2018-04-11T19:44:03.208Z,20.71
2018-04-11T19:46:31.503Z,20.91
2018-04-11T19:48:59.842Z,21.35
2018-04-11T19:51:28.082Z,21.56
2018-04-11T19:53:56.383Z,21.64
2018-04-11T19:56:24.660Z,21.65
2018-04-11T19:58:53.032Z,21.64
2018-04-11T20:01:21.281Z,21.63
2018-04-11T20:03:49.598Z,21.58
2018-04-11T20:06:17.870Z,21.56
2018-04-11T20:08:46.158Z,21.53
2018-04-11T20:11:14.494Z,20.47
2018-04-11T20:13:42.751Z,19.44
2018-04-11T20:16:11.055Z,19.02
2018-04-11T20:18:39.400Z,18.82
2018-04-11T20:21:07.733Z,18.60
2018-04-11T20:23:36.082Z,18.54
2018-04-11T20:26:05.215Z,18.39
2018-04-11T20:28:33.535Z,18.32
2018-04-11T20:31:01.818Z,18.20
2018-04-11T20:33:30.148Z,18.06
2018-04-11T20:35:58.422Z,17.95
2018-04-11T20:38:26.673Z,17.97
2018-04-11T20:40:54.937Z,17.95
2018-04-11T20:43:23.556Z,17.82
2018-04-11T20:45:51.848Z,17.68
2018-04-11T20:48:20.120Z,17.59
2018-04-11T20:50:49.219Z,17.44
2018-04-11T20:53:18.297Z,17.37
2018-04-11T20:55:46.596Z,17.33
2018-04-11T20:58:14.920Z,17.30
2018-04-11T21:00:43.247Z,17.31
2018-04-11T21:03:11.557Z,17.33
2018-04-11T21:05:39.842Z,17.14
2018-04-11T21:08:08.123Z,17.00
2018-04-11T21:10:36.431Z,16.94
2018-04-11T21:13:04.837Z,16.95
2018-04-11T21:15:33.148Z,16.80
2018-04-11T21:18:01.441Z,16.77
2018-04-11T21:20:29.730Z,16.78
2018-04-11T21:22:57.997Z,16.81
2018-04-11T21:25:26.335Z,16.78
2018-04-11T21:27:54.631Z,16.78
2018-04-11T21:30:22.923Z,16.72
2018-04-11T21:32:51.218Z,16.55
2018-04-11T21:35:19.471Z,16.55
2018-04-11T21:37:47.774Z,16.54
2018-04-11T21:40:16.030Z,16.56
2018-04-11T21:42:44.364Z,16.51
2018-04-11T21:45:12.602Z,16.50
2018-04-11T21:47:40.874Z,16.43
2018-04-11T21:50:09.135Z,16.40
2018-04-11T21:52:37.415Z,16.39
2018-04-11T21:55:05.675Z,16.38
2018-04-11T21:57:33.958Z,16.28
2018-04-11T22:00:02.225Z,16.21
2018-04-11T22:02:30.511Z,16.21
2018-04-11T22:04:58.783Z,16.14
2018-04-11T22:07:27.092Z,16.20
2018-04-11T22:09:55.342Z,16.26
2018-04-11T22:12:23.749Z,16.26
2018-04-11T22:14:51.995Z,16.27
2018-04-11T22:17:20.308Z,16.30
2018-04-11T22:19:48.550Z,16.04
2018-04-11T22:22:16.844Z,15.98
2018-04-11T22:24:46.048Z,15.99
2018-04-11T22:27:14.307Z,15.88
2018-04-11T22:29:42.602Z,15.84
2018-04-11T22:32:10.855Z,15.83
2018-04-11T22:34:39.878Z,15.83
2018-04-11T22:37:08.126Z,15.70
2018-04-11T22:39:36.442Z,15.73
2018-04-11T22:42:04.756Z,15.90
2018-04-11T22:44:33.064Z,15.87
2018-04-11T22:47:01.328Z,15.73
2018-04-11T22:49:29.610Z,15.56
2018-04-11T22:51:57.882Z,15.60
2018-04-11T22:54:26.195Z,15.64
2018-04-11T22:56:54.487Z,15.58
2018-04-11T22:59:22.806Z,15.34
2018-04-11T23:01:51.707Z,15.38
2018-04-11T23:04:20.093Z,15.45
2018-04-11T23:06:48.395Z,15.47
2018-04-11T23:09:16.655Z,15.52
2018-04-11T23:11:44.925Z,15.59
2018-04-11T23:14:13.219Z,15.60
2018-04-11T23:16:41.505Z,15.62
2018-04-11T23:19:09.783Z,15.60
2018-04-11T23:21:38.125Z,15.61
2018-04-11T23:24:06.426Z,15.54
2018-04-11T23:26:34.754Z,15.56
2018-04-11T23:29:03.138Z,15.34
2018-04-11T23:31:31.427Z,15.20
2018-04-11T23:33:59.719Z,15.12
2018-04-11T23:36:28.011Z,15.21
2018-04-11T23:38:56.267Z,15.18
2018-04-11T23:41:24.562Z,15.21
2018-04-11T23:43:52.855Z,15.10
2018-04-11T23:46:21.166Z,15.18
2018-04-11T23:48:49.586Z,15.14
2018-04-11T23:51:17.888Z,15.23
2018-04-11T23:53:46.162Z,15.16
2018-04-11T23:56:14.466Z,15.19
2018-04-11T23:58:42.752Z,15.07
